Time;durP1;ratioP1;P1;durP2;ratioP2;P2;SDS_P1;SDS_P2;PMS_P1;PMS_P2;Temp;Humidity;BMP_temperature;BMP_pressure;BME280_temperature;BME280_humidity;BME280_pressure;Samples;Min_cycle;Max_cycle;Signal;HPM_P1;HPM_P2
2022/10/04 00:01:48;;;;;;;10.20;6.90;;;;;;;9.77;81.48;99754.35;106577;1278;139904;-84
2022/10/04 00:04:23;;;;;;;9.80;6.50;;;;;;;9.79;81.65;99752.52;106806;1276;108993;-83
2022/10/04 00:06:57;;;;;;;11.70;6.70;;;;;;;9.83;81.63;99754.64;107319;1278;94667;-82
2022/10/04 00:09:31;;;;;;;10.20;6.20;;;;;;;9.85;81.67;99749.35;106392;1277;139134;-84
2022/10/04 00:12:01;;;;;;;9.30;6.10;;;;;;;9.86;81.65;99754.16;105838;1278;110149;-84
2022/10/04 00:14:35;;;;;;;11.60;6.00;;;;;;;9.88;81.61;99752.54;105908;1271;138277;-83
2022/10/04 00:17:11;;;;;;;9.40;5.70;;;;;;;9.91;81.77;99748.80;106715;1270;107915;-84
2022/10/04 00:19:44;;;;;;;11.70;6.00;;;;;;;9.93;81.80;99747.15;107734;1271;138200;-85
2022/10/04 00:22:21;;;;;;;9.10;6.30;;;;;;;9.94;81.78;99751.28;107177;1270;96512;-85
2022/10/04 00:25:20;;;;;;;9.80;5.90;;;;;;;9.96;81.80;99752.75;106283;1270;111159;-84
2022/10/04 00:28:24;;;;;;;9.10;5.50;;;;;;;10.00;81.82;99747.59;107812;1271;108312;-85
2022/10/04 00:31:10;;;;;;;13.60;5.30;;;;;;;10.00;81.84;99741.13;106209;1270;109361;-85
2022/10/04 00:33:40;;;;;;;8.90;5.30;;;;;;;10.01;81.78;99737.12;106185;1270;96502;-82
2022/10/04 00:36:45;;;;;;;9.00;5.70;;;;;;;10.00;81.83;99736.96;106299;1270;96585;-83
2022/10/04 00:39:24;;;;;;;11.60;5.30;;;;;;;10.00;81.84;99734.17;107378;1271;139761;-82
2022/10/04 00:42:12;;;;;;;11.80;6.00;;;;;;;10.01;81.91;99735.20;107821;1270;107260;-84
2022/10/04 00:44:47;;;;;;;12.10;5.90;;;;;;;10.00;82.01;99733.84;107685;1270;138957;-84
2022/10/04 00:47:30;;;;;;;14.40;5.70;;;;;;;10.01;82.02;99733.63;107814;1270;94901;-84
2022/10/04 00:50:10;;;;;;;9.20;5.40;;;;;;;10.02;81.94;99735.88;107671;1271;138622;-83
2022/10/04 00:52:44;;;;;;;10.00;5.30;;;;;;;10.02;82.02;99734.13;107808;1270;111309;-81
2022/10/04 00:55:24;;;;;;;13.60;5.90;;;;;;;10.01;81.93;99734.85;107718;1271;139265;-82
2022/10/04 00:57:58;;;;;;;12.60;5.00;;;;;;;10.01;81.93;99730.52;107794;1271;108988;-84
2022/10/04 01:00:32;;;;;;;11.70;5.00;;;;;;;10.01;81.95;99733.29;107791;1271;94704;-84
2022/10/04 01:03:05;;;;;;;12.10;4.70;;;;;;;10.01;81.93;99737.27;107739;1270;138218;-83
2022/10/04 01:05:37;;;;;;;10.50;4.80;;;;;;;10.01;81.84;99732.05;107729;1270;111443;-82
2022/10/04 01:08:12;;;;;;;11.20;4.50;;;;;;;10.01;81.69;99730.87;107696;1270;139627;-86
2022/10/04 01:10:47;;;;;;;8.50;4.10;;;;;;;10.01;81.67;99725.48;107859;1270;107939;-83
2022/10/04 01:13:21;;;;;;;7.90;4.80;;;;;;;10.01;81.48;99730.50;107688;1270;139627;-85
2022/10/04 01:15:55;;;;;;;10.20;3.90;;;;;;;10.01;81.50;99729.30;107835;1270;94630;-84
2022/10/04 01:18:33;;;;;;;9.40;4.20;;;;;;;10.02;81.44;99727.35;107767;1271;110309;-83
2022/10/04 01:21:03;;;;;;;;;;;;;;;10.02;81.38;99720.95;107698;1270;140019;-83
2022/10/04 01:23:34;;;;;;;7.20;3.70;;;;;;;9.99;81.32;99722.07;107739;1271;108775;-83
2022/10/04 01:26:04;;;;;;;9.90;4.40;;;;;;;9.97;81.24;99717.64;107664;1271;137923;-82
2022/10/04 01:28:35;;;;;;;7.50;3.60;;;;;;;9.95;81.24;99717.19;107742;1271;94346;-83
2022/10/04 01:31:04;;;;;;;13.60;4.40;;;;;;;9.93;81.28;99721.61;107745;1269;110137;-83
2022/10/04 01:33:33;;;;;;;8.00;3.80;;;;;;;9.91;81.24;99723.27;107661;1270;137906;-83
2022/10/04 01:36:02;;;;;;;11.20;4.20;;;;;;;9.88;81.13;99724.23;107827;1270;107785;-84
2022/10/04 01:38:31;;;;;;;7.00;3.90;;;;;;;9.87;81.26;99722.71;107545;1271;138747;-84
2022/10/04 01:41:03;;;;;;;10.40;4.00;;;;;;;9.84;81.24;99717.81;107761;1271;94680;-84
2022/10/04 01:43:38;;;;;;;9.00;3.90;;;;;;;9.81;81.36;99721.90;107639;1271;139484;-84
2022/10/04 01:46:10;;;;;;;6.50;3.90;;;;;;;9.80;81.40;99725.91;107813;1271;107924;-84
2022/10/04 01:48:43;;;;;;;7.50;3.90;;;;;;;9.79;81.42;99733.10;107705;1271;107954;-82
2022/10/04 01:51:17;;;;;;;9.80;3.90;;;;;;;9.79;81.49;99732.24;107711;1270;138156;-83
2022/10/04 01:53:50;;;;;;;12.90;4.40;;;;;;;9.78;81.56;99735.23;107824;1271;94614;-85
2022/10/04 01:56:23;;;;;;;9.40;3.60;;;;;;;9.78;81.63;99738.86;107726;1270;137969;-84
2022/10/04 01:58:57;;;;;;;12.40;4.20;;;;;;;9.76;81.54;99736.49;107805;1270;107726;-85
2022/10/04 02:01:31;;;;;;;8.50;3.70;;;;;;;9.74;81.48;99734.50;107699;1270;138642;-83
2022/10/04 02:04:05;;;;;;;10.10;3.60;;;;;;;9.72;81.36;99739.09;107814;1271;94835;-84
2022/10/04 02:06:40;;;;;;;11.50;3.90;;;;;;;9.70;81.36;99738.64;107832;1270;94899;-84
2022/10/04 02:09:11;;;;;;;11.80;3.90;;;;;;;9.66;81.33;99737.16;107721;1271;138918;-84
2022/10/04 02:11:43;;;;;;;9.30;3.80;;;;;;;9.64;81.31;99739.70;107849;1269;106917;-83
2022/10/04 02:14:14;;;;;;;9.60;3.70;;;;;;;9.63;81.40;99742.52;107659;1270;139848;-81
2022/10/04 02:16:45;;;;;;;8.50;3.80;;;;;;;9.60;81.36;99741.08;107727;1270;95684;-82
2022/10/04 02:19:15;;;;;;;9.10;3.70;;;;;;;9.59;81.47;99743.89;107656;1271;139398;-82
2022/10/04 02:21:45;;;;;;;9.30;3.90;;;;;;;9.58;81.49;99742.52;107826;1271;110693;-83
2022/10/04 02:24:15;;;;;;;6.20;2.80;;;;;;;9.58;81.48;99737.16;107664;1271;108285;-84
2022/10/04 02:26:50;;;;;;;8.10;3.10;;;;;;;9.58;81.47;99736.80;107690;1271;139358;-80
2022/10/04 02:29:21;;;;;;;6.60;3.50;;;;;;;9.58;81.47;99739.08;107795;1271;94771;-83
2022/10/04 02:34:40;;;;;;;5.60;3.10;;;;;;;9.57;81.38;99744.13;107802;1270;109736;-82
2022/10/04 02:37:11;;;;;;;11.70;3.40;;;;;;;9.57;81.42;99739.11;107733;1271;108094;-82
2022/10/04 02:39:46;;;;;;;6.70;3.40;;;;;;;9.59;81.40;99737.83;107782;1271;108834;-83
2022/10/04 02:42:20;;;;;;;8.10;3.30;;;;;;;9.60;81.36;99732.06;107810;1271;94701;-86
2022/10/04 02:44:56;;;;;;;6.30;2.80;;;;;;;9.59;81.17;99735.73;107726;1271;137811;-83
2022/10/04 02:47:29;;;;;;;6.90;3.30;;;;;;;9.60;81.26;99742.14;107837;1270;111463;-84
2022/10/04 02:50:05;;;;;;;8.90;2.90;;;;;;;9.58;81.13;99744.61;107700;1271;140304;-83
2022/10/04 02:52:41;;;;;;;8.20;3.10;;;;;;;9.57;81.20;99749.85;107811;1271;108252;-82
2022/10/04 02:55:19;;;;;;;9.10;2.90;;;;;;;9.56;81.23;99747.64;107816;1270;95677;-83
2022/10/04 02:57:51;;;;;;;8.20;3.20;;;;;;;9.55;81.15;99750.45;107819;1270;94772;-83
2022/10/04 03:00:23;;;;;;;4.60;2.50;;;;;;;9.55;81.18;99750.46;107834;1271;110545;-82
2022/10/04 03:03:18;;;;;;;5.80;2.70;;;;;;;9.54;81.22;99749.62;107726;1271;138736;-83
2022/10/04 03:05:54;;;;;;;10.30;2.90;;;;;;;9.54;81.26;99751.72;107827;1270;109013;-81
2022/10/04 03:08:23;;;;;;;7.90;3.00;;;;;;;9.54;81.54;99752.74;107691;1271;139668;-84
2022/10/04 03:10:52;;;;;;;6.50;2.70;;;;;;;9.54;81.58;99747.20;107834;1271;94596;-83
2022/10/04 03:13:22;;;;;;;6.00;3.10;;;;;;;9.53;81.58;99746.55;107703;1271;138365;-83
2022/10/04 03:15:51;;;;;;;7.50;3.00;;;;;;;9.53;81.65;99745.15;107823;1270;106471;-84
2022/10/04 03:18:21;;;;;;;7.50;3.00;;;;;;;9.53;81.80;99750.02;107817;1271;109171;-84
2022/10/04 03:20:51;;;;;;;8.90;3.10;;;;;;;9.54;81.86;99748.42;107683;1271;138407;-84
2022/10/04 03:23:20;;;;;;;6.60;2.90;;;;;;;9.55;81.88;99751.48;107713;1270;94786;-84
2022/10/04 03:25:59;;;;;;;8.00;3.50;;;;;;;9.55;82.03;99757.56;107740;1271;137927;-83
2022/10/04 03:28:29;;;;;;;6.10;3.40;;;;;;;9.57;82.11;99753.16;107806;1271;109089;-83
2022/10/04 03:30:58;;;;;;;6.90;3.40;;;;;;;9.57;82.14;99752.84;107810;1271;107684;-83
2022/10/04 03:33:28;;;;;;;5.50;3.00;;;;;;;9.58;82.24;99754.52;107585;1271;138817;-83
2022/10/04 03:35:59;;;;;;;8.70;4.00;;;;;;;9.58;82.31;99755.36;107811;1270;94695;-84
2022/10/04 03:38:32;;;;;;;7.50;3.80;;;;;;;9.60;82.37;99754.95;107696;1271;138091;-86
2022/10/04 03:41:02;;;;;;;7.00;3.60;;;;;;;9.61;82.49;99753.20;107711;1271;106769;-84
2022/10/04 03:43:37;;;;;;;8.60;4.30;;;;;;;9.62;82.60;99759.20;107656;1271;138076;-83
2022/10/04 03:46:09;;;;;;;9.10;4.20;;;;;;;9.64;82.64;99766.61;107658;1271;94658;-84
2022/10/04 03:48:42;;;;;;;6.40;4.30;;;;;;;9.66;82.72;99764.61;107740;1271;94800;-82
2022/10/04 03:51:15;;;;;;;7.70;4.10;;;;;;;9.69;82.73;99762.27;107694;1270;138866;-82
2022/10/04 03:53:46;;;;;;;10.10;4.30;;;;;;;9.71;82.72;99759.79;107826;1270;108889;-82
2022/10/04 03:56:22;;;;;;;8.30;4.10;;;;;;;9.73;82.72;99759.38;107698;1270;138593;-83
2022/10/04 03:58:52;;;;;;;8.50;4.20;;;;;;;9.74;82.65;99764.52;107793;1269;94757;-82
2022/10/04 04:01:33;;;;;;;8.00;4.50;;;;;;;9.75;82.64;99766.94;107692;1270;138360;-82
2022/10/04 04:04:13;;;;;;;11.30;5.00;;;;;;;9.77;82.70;99771.57;107790;1270;110006;-83
2022/10/04 04:06:47;;;;;;;9.20;4.20;;;;;;;9.76;82.70;99767.77;107801;1270;108703;-81
2022/10/04 04:09:24;;;;;;;8.90;4.90;;;;;;;9.76;82.69;99765.35;107665;1270;137919;-82
2022/10/04 04:11:56;;;;;;;9.00;4.60;;;;;;;9.75;82.68;99768.16;107784;1271;95712;-83
2022/10/04 04:14:27;;;;;;;6.90;4.60;;;;;;;9.75;82.64;99766.77;107681;1271;137755;-84
2022/10/04 04:17:40;;;;;;;6.40;4.60;;;;;;;9.74;82.67;99761.05;107806;1270;111263;-83
2022/10/04 04:20:23;;;;;;;9.10;4.30;;;;;;;9.73;82.76;99767.54;107692;1271;138809;-83
2022/10/04 04:23:01;;;;;;;6.20;4.10;;;;;;;9.72;82.91;99767.90;107796;1270;107876;-82
2022/10/04 04:25:37;;;;;;;9.10;4.40;;;;;;;9.72;83.01;99774.17;107696;1271;138970;-83
2022/10/04 04:28:26;;;;;;;8.20;4.70;;;;;;;9.71;83.09;99780.09;107785;1270;94762;-82
2022/10/04 04:30:59;;;;;;;7.90;4.30;;;;;;;9.71;83.11;99780.27;107793;1271;110927;-83
2022/10/04 04:33:33;;;;;;;9.40;4.50;;;;;;;9.72;83.15;99788.06;107666;1271;138106;-83
2022/10/04 04:36:10;;;;;;;12.60;4.60;;;;;;;9.72;83.28;99787.69;107795;1271;107818;-82
2022/10/04 04:39:33;;;;;;;10.90;4.60;;;;;;;9.73;83.22;99793.39;107653;1271;139254;-83
2022/10/04 04:41:33;;;;;;;8.80;4.40;;;;;;;9.74;83.23;99800.64;107802;1271;94665;-82
2022/10/04 04:44:03;;;;;;;10.20;5.10;;;;;;;9.75;83.38;99793.83;107708;1271;137681;-82
2022/10/04 04:46:32;;;;;;;9.10;4.50;;;;;;;9.77;83.27;99797.42;107797;1270;107957;-82
2022/10/04 04:49:03;;;;;;;8.60;4.60;;;;;;;9.78;83.32;99796.52;107768;1271;108661;-83
2022/10/04 04:51:33;;;;;;;10.60;4.30;;;;;;;9.80;83.29;99792.29;107686;1270;137733;-82
2022/10/04 04:54:05;;;;;;;12.00;4.60;;;;;;;9.80;83.21;99796.77;107720;1271;94452;-82
2022/10/04 04:56:35;;;;;;;10.20;4.10;;;;;;;9.80;83.18;99800.40;107703;1270;137998;-85
2022/10/04 04:59:06;;;;;;;9.90;4.50;;;;;;;9.80;83.16;99798.35;107780;1271;108479;-83
2022/10/04 05:01:41;;;;;;;10.40;3.90;;;;;;;9.80;83.03;99800.25;107690;1270;138164;-82
2022/10/04 05:04:18;;;;;;;7.50;3.80;;;;;;;9.80;83.02;99801.82;107823;1270;94486;-82
2022/10/04 05:06:58;;;;;;;9.10;3.50;;;;;;;9.81;83.05;99809.23;107804;1271;94700;-83
2022/10/04 05:09:30;;;;;;;6.70;3.80;;;;;;;9.81;82.96;99817.23;107678;1270;139890;-82
2022/10/04 05:12:07;;;;;;;10.50;3.90;;;;;;;9.81;83.01;99820.35;107827;1271;108977;-82
2022/10/04 05:14:39;;;;;;;7.00;3.40;;;;;;;9.81;82.99;99819.48;107686;1270;139201;-83
2022/10/04 05:17:19;;;;;;;8.00;3.10;;;;;;;9.81;82.98;99824.32;107756;1271;94697;-83
2022/10/04 05:19:49;;;;;;;7.30;3.60;;;;;;;9.82;82.94;99828.98;107714;1270;138479;-82
2022/10/04 05:22:23;;;;;;;7.50;3.10;;;;;;;9.84;82.99;99825.80;107834;1271;111055;-83
2022/10/04 05:24:55;;;;;;;9.40;3.40;;;;;;;9.85;82.95;99827.48;107792;1271;107876;-83
2022/10/04 05:27:29;;;;;;;8.00;3.70;;;;;;;9.88;83.05;99832.27;107651;1270;137998;-83
2022/10/04 05:30:05;;;;;;;8.80;3.40;;;;;;;9.90;83.08;99831.30;107791;1271;94654;-83
2022/10/04 05:32:48;;;;;;;8.50;3.40;;;;;;;9.93;83.00;99842.48;107712;1270;138757;-83
2022/10/04 05:35:19;;;;;;;7.00;3.50;;;;;;;9.95;83.02;99845.90;107853;1270;110067;-83
2022/10/04 05:38:03;;;;;;;5.10;3.10;;;;;;;9.97;82.98;99848.42;107677;1271;138115;-81
2022/10/04 05:40:41;;;;;;;9.30;3.40;;;;;;;10.01;82.99;99854.71;107801;1271;107768;-83
2022/10/04 05:43:24;;;;;;;;;;;;;;;10.04;83.01;99856.30;107803;1270;94773;-83
2022/10/04 05:46:17;;;;;;;7.90;2.90;;;;;;;10.08;83.02;99863.69;107616;1271;94845;-83
2022/10/04 05:48:50;;;;;;;8.70;2.80;;;;;;;10.11;83.00;99866.49;107804;1270;110109;-85
2022/10/04 05:51:22;;;;;;;6.80;3.40;;;;;;;10.13;82.96;99864.85;107675;1271;139627;-84
2022/10/04 05:53:51;;;;;;;8.90;2.70;;;;;;;10.18;82.92;99872.14;107794;1271;108531;-83
2022/10/04 05:56:57;;;;;;;8.50;2.70;;;;;;;10.22;82.88;99874.46;107684;1270;138077;-83
2022/10/04 05:59:50;;;;;;;6.20;2.40;;;;;;;10.26;82.76;99881.60;107827;1270;94711;-85
2022/10/04 06:02:35;;;;;;;7.50;2.50;;;;;;;10.32;82.81;99883.98;107676;1270;138343;-90
2022/10/04 06:05:14;;;;;;;6.90;2.70;;;;;;;10.35;82.63;99881.27;107686;1270;109231;-82
2022/10/04 06:07:51;;;;;;;14.30;3.10;;;;;;;10.38;82.64;99882.21;107679;1271;138619;-84
2022/10/04 06:10:50;;;;;;;5.80;2.20;;;;;;;10.42;82.54;99883.29;107767;1271;94736;-83
2022/10/04 06:13:44;;;;;;;8.50;2.80;;;;;;;10.46;82.47;99884.91;107586;1270;140173;-82
2022/10/04 06:16:25;;;;;;;7.00;3.00;;;;;;;10.49;82.36;99891.01;107802;1270;109910;-82
2022/10/04 06:19:18;;;;;;;5.70;2.50;;;;;;;10.59;82.46;99885.77;107740;1271;108026;-86
2022/10/04 06:22:25;;;;;;;5.80;2.40;;;;;;;10.96;82.34;99897.40;107690;1271;108662;-82
2022/10/04 06:25:05;;;;;;;4.30;2.50;;;;;;;11.10;81.44;99901.70;107649;1271;94761;-83
2022/10/04 06:27:41;;;;;;;6.00;2.80;;;;;;;11.11;81.17;99902.00;107673;1270;137690;-82
2022/10/04 06:30:16;;;;;;;5.30;2.60;;;;;;;11.11;81.01;99905.31;107803;1270;110076;-82
2022/10/04 06:33:03;;;;;;;6.60;2.60;;;;;;;11.11;80.81;99909.14;107658;1270;138253;-83
2022/10/04 06:35:57;;;;;;;11.60;2.50;;;;;;;11.10;80.80;99911.09;107752;1270;108165;-82
2022/10/04 06:38:47;;;;;;;5.50;2.60;;;;;;;11.09;80.67;99917.05;107686;1270;138268;-82
2022/10/04 06:41:28;;;;;;;7.00;3.00;;;;;;;11.08;80.66;99918.67;107788;1271;94430;-81
2022/10/04 06:44:20;;;;;;;7.00;2.40;;;;;;;11.07;80.71;99925.66;107686;1270;139973;-81
2022/10/04 06:46:52;;;;;;;6.50;2.80;;;;;;;11.08;80.63;99926.67;107800;1270;107816;-81
2022/10/04 06:49:34;;;;;;;5.90;2.70;;;;;;;11.08;80.72;99933.27;107667;1270;140025;-81
2022/10/04 06:52:30;;;;;;;6.10;2.20;;;;;;;11.10;80.66;99936.33;107804;1270;94884;-82
2022/10/04 06:55:29;;;;;;;6.90;2.70;;;;;;;11.11;80.47;99936.29;107816;1271;94725;-81
2022/10/04 06:58:41;;;;;;;7.80;2.90;;;;;;;11.13;80.30;99940.91;107813;1268;110104;-81
2022/10/04 07:01:22;;;;;;;5.50;2.40;;;;;;;11.14;80.50;99945.23;107328;1277;109501;-83
2022/10/04 07:03:56;;;;;;;10.10;3.00;;;;;;;11.16;80.32;99945.65;107281;1277;107018;-81
2022/10/04 07:06:30;;;;;;;7.40;3.00;;;;;;;11.18;80.23;99948.04;107329;1277;94412;-82
2022/10/04 07:09:02;;;;;;;8.10;2.80;;;;;;;11.20;80.21;99947.23;107169;1277;138092;-82
2022/10/04 07:11:41;;;;;;;7.70;2.70;;;;;;;11.24;80.09;99951.42;107290;1277;110127;-82
2022/10/04 07:14:15;;;;;;;10.80;2.80;;;;;;;11.30;80.09;99957.98;107186;1277;139039;-83
2022/10/04 07:16:46;;;;;;;7.10;2.90;;;;;;;11.35;79.95;99959.52;107299;1277;107844;-82
2022/10/04 07:19:30;;;;;;;3.60;2.10;;;;;;;11.41;79.92;99961.19;107155;1277;140657;-82
2022/10/04 07:22:14;;;;;;;6.30;2.70;;;;;;;11.48;79.85;99968.05;107303;1277;95368;-82
2022/10/04 07:24:56;;;;;;;7.70;2.60;;;;;;;11.54;79.62;99969.75;107272;1277;109873;-82
2022/10/04 07:27:30;;;;;;;6.70;2.50;;;;;;;11.57;79.47;99979.71;107074;1277;140011;-82
2022/10/04 07:30:01;;;;;;;6.40;2.50;;;;;;;11.59;79.21;99980.34;107268;1277;108825;-83
2022/10/04 07:32:34;;;;;;;5.40;2.50;;;;;;;11.60;79.11;99981.84;107086;1277;140017;-83
2022/10/04 07:35:15;;;;;;;5.80;2.50;;;;;;;11.61;78.98;99984.95;107261;1277;94795;-82
2022/10/04 07:37:57;;;;;;;5.70;2.50;;;;;;;11.60;78.75;99992.30;107436;1270;138917;-83
2022/10/04 07:40:29;;;;;;;5.20;2.80;;;;;;;11.59;78.57;99986.92;107864;1269;107578;-83
2022/10/04 07:43:03;;;;;;;5.70;2.10;;;;;;;11.59;78.50;99992.33;107843;1270;108780;-83
2022/10/04 07:45:38;;;;;;;5.50;2.40;;;;;;;11.60;78.43;100001.02;107662;1270;138507;-82
2022/10/04 07:48:15;;;;;;;6.00;2.10;;;;;;;11.60;78.45;100000.46;107765;1270;94825;-83
2022/10/04 07:50:57;;;;;;;7.10;2.20;;;;;;;11.61;78.30;100002.02;107728;1269;136963;-82
2022/10/04 07:53:31;;;;;;;4.10;2.20;;;;;;;11.61;78.14;100007.59;107762;1271;108908;-82
2022/10/04 07:56:07;;;;;;;5.70;2.30;;;;;;;11.60;78.04;100013.17;107687;1269;138336;-82
2022/10/04 07:58:46;;;;;;;4.90;2.40;;;;;;;11.61;78.13;100017.19;107766;1270;94576;-84
2022/10/04 08:01:28;;;;;;;4.20;2.10;;;;;;;11.62;77.86;100015.21;107741;1269;139164;-82
2022/10/04 08:04:11;;;;;;;5.50;2.30;;;;;;;11.62;77.61;100012.59;107827;1270;110734;-83
2022/10/04 08:06:56;;;;;;;6.20;2.20;;;;;;;11.62;77.37;100017.81;107812;1270;108793;-83
2022/10/04 08:09:37;;;;;;;13.00;7.10;;;;;;;11.62;77.19;100023.56;107661;1270;139507;-83
2022/10/04 08:12:18;;;;;;;7.10;2.80;;;;;;;11.64;77.10;100022.95;107647;1272;95168;-84
2022/10/04 08:14:54;;;;;;;8.70;2.20;;;;;;;11.65;77.08;100024.33;107707;1270;139492;-84
2022/10/04 08:17:46;;;;;;;12.60;2.50;;;;;;;11.66;77.00;100023.92;107804;1271;111349;-83
2022/10/04 08:20:32;;;;;;;5.80;2.10;;;;;;;11.68;76.93;100025.08;107581;1270;139553;-81
2022/10/04 08:23:17;;;;;;;4.90;2.70;;;;;;;11.72;76.95;100022.46;107792;1270;108810;-82
2022/10/04 08:25:58;;;;;;;6.20;1.90;;;;;;;11.79;76.79;100024.46;107596;1271;141353;-83
2022/10/04 08:31:30;;;;;;;;;;;;;;;12.02;76.14;100025.77;107714;1270;136984;-83
2022/10/04 08:34:12;;;;;;;5.10;1.80;;;;;;;12.10;75.87;100027.01;107790;1270;108885;-83
2022/10/04 08:36:55;;;;;;;3.90;2.00;;;;;;;12.19;75.93;100024.19;107844;1270;108867;-83
2022/10/04 08:39:43;;;;;;;6.70;2.20;;;;;;;12.29;75.62;100033.02;107617;1270;138992;-84
2022/10/04 08:42:44;;;;;;;5.40;2.10;;;;;;;12.37;75.16;100036.48;107707;1271;95107;-84
2022/10/04 08:45:46;;;;;;;5.00;1.80;;;;;;;12.42;74.87;100038.06;107605;1271;139414;-83
2022/10/04 08:48:39;;;;;;;2.60;1.60;;;;;;;12.45;74.65;100038.45;107683;1271;108310;-82
2022/10/04 08:51:37;;;;;;;4.60;1.60;;;;;;;12.48;74.21;100034.80;107733;1270;139337;-84
2022/10/04 08:54:22;;;;;;;;;;;;;;;12.51;73.82;100037.98;107860;1269;94796;-82
2022/10/04 08:57:20;;;;;;;1.80;1.30;;;;;;;12.56;73.88;100038.83;107811;1268;125771;-85
2022/10/04 09:00:12;;;;;;;4.80;1.60;;;;;;;12.66;73.53;100040.12;107844;1269;111193;-83
2022/10/04 09:03:16;;;;;;;3.20;1.40;;;;;;;12.82;73.28;100048.33;107698;1270;138198;-85
2022/10/04 09:05:57;;;;;;;3.30;1.50;;;;;;;12.94;72.67;100046.21;107369;1274;110611;-82
2022/10/04 09:09:01;;;;;;;4.20;1.30;;;;;;;13.02;72.43;100050.23;107355;1275;139971;-82
2022/10/04 09:12:04;;;;;;;3.10;1.60;;;;;;;13.11;72.05;100052.80;107484;1274;95802;-81
2022/10/04 09:15:11;;;;;;;4.40;1.20;;;;;;;13.17;71.65;100053.02;107044;1279;138277;-81
2022/10/04 09:17:53;;;;;;;3.30;1.40;;;;;;;13.28;71.54;100063.51;107080;1279;107885;-81
2022/10/04 09:20:32;;;;;;;7.20;1.30;;;;;;;13.50;71.29;100056.93;107075;1279;138330;-81
2022/10/04 09:23:44;;;;;;;2.70;1.40;;;;;;;13.61;70.95;100063.38;107185;1278;94947;-85
2022/10/04 09:26:23;;;;;;;2.60;1.40;;;;;;;13.79;70.42;100062.33;106840;1279;139076;-83
2022/10/04 09:29:12;;;;;;;1.30;1.20;;;;;;;13.84;69.96;100068.04;107221;1279;110731;-82
2022/10/04 09:32:01;;;;;;;2.10;1.40;;;;;;;13.85;69.16;100071.48;107061;1278;141290;-81
2022/10/04 09:34:50;;;;;;;2.90;1.10;;;;;;;13.86;68.89;100076.34;106947;1279;108957;-84
2022/10/04 09:37:38;;;;;;;3.80;1.20;;;;;;;13.91;68.81;100070.15;106964;1279;140346;-83
2022/10/04 09:40:38;;;;;;;4.20;1.30;;;;;;;14.03;68.14;100071.84;107200;1279;94874;-83
2022/10/04 09:43:33;;;;;;;1.90;1.20;;;;;;;14.05;67.69;100081.19;107472;1275;109882;-83
2022/10/04 09:46:16;;;;;;;5.90;1.40;;;;;;;14.05;67.66;100083.96;107499;1274;109151;-82
2022/10/04 09:48:58;;;;;;;2.30;1.50;;;;;;;14.03;67.28;100081.48;107550;1274;108792;-83
2022/10/04 09:52:01;;;;;;;2.60;1.20;;;;;;;13.97;67.47;100085.26;107653;1270;138149;-84
2022/10/04 09:54:56;;;;;;;2.20;1.20;;;;;;;13.89;67.38;100089.12;107793;1270;95067;-82
2022/10/04 09:57:36;;;;;;;3.00;1.50;;;;;;;13.81;67.48;100093.35;107685;1270;140040;-85
2022/10/04 10:00:22;;;;;;;4.40;1.40;;;;;;;13.77;67.83;100092.33;107879;1268;109155;-82
2022/10/04 10:03:17;;;;;;;2.90;1.30;;;;;;;13.72;67.90;100100.09;107728;1268;138174;-81
2022/10/04 10:06:32;;;;;;;1.80;1.30;;;;;;;13.64;67.82;100100.64;107845;1268;94744;-83
2022/10/04 10:09:17;;;;;;;4.10;1.60;;;;;;;13.51;67.41;100099.68;107301;1275;138594;-82
2022/10/04 10:15:13;;;;;;;5.90;1.40;;;;;;;13.50;68.32;100098.30;106653;1281;138864;-80
2022/10/04 10:17:52;;;;;;;2.90;1.20;;;;;;;14.09;69.03;100101.80;106884;1282;108440;-81
2022/10/04 10:20:40;;;;;;;4.10;1.30;;;;;;;14.76;68.76;100105.96;106694;1281;139142;-81
2022/10/04 10:23:34;;;;;;;2.10;1.20;;;;;;;15.25;68.05;100104.77;106927;1281;94752;-83
2022/10/04 10:26:22;;;;;;;3.40;1.60;;;;;;;15.53;66.70;100104.29;106822;1281;138693;-82
2022/10/04 10:29:29;;;;;;;5.20;1.60;;;;;;;15.62;65.95;100109.64;106927;1281;108435;-79
2022/10/04 10:32:23;;;;;;;4.20;1.60;;;;;;;15.60;65.29;100112.52;106698;1281;138242;-82
2022/10/04 10:35:31;;;;;;;4.30;1.30;;;;;;;15.62;65.88;100113.45;106825;1281;94879;-81
2022/10/04 10:38:31;;;;;;;1.80;1.30;;;;;;;15.78;65.43;100119.08;106816;1281;138983;-80
2022/10/04 10:41:26;;;;;;;3.70;1.60;;;;;;;15.71;64.13;100122.08;106940;1280;109870;-80
2022/10/04 10:44:18;;;;;;;2.00;1.10;;;;;;;15.55;63.81;100122.96;106809;1281;138756;-82
2022/10/04 10:47:04;;;;;;;3.10;1.00;;;;;;;15.39;63.75;100128.54;107649;1271;109664;-81
2022/10/04 10:49:51;;;;;;;3.50;1.30;;;;;;;15.36;63.84;100128.34;107681;1270;138400;-81
2022/10/04 10:52:43;;;;;;;2.10;1.10;;;;;;;15.30;63.44;100132.91;107737;1270;116378;-80
2022/10/04 10:55:34;;;;;;;2.90;1.30;;;;;;;15.28;63.76;100132.09;107648;1271;140372;-80
2022/10/04 10:58:27;;;;;;;4.50;1.40;;;;;;;15.49;63.92;100131.89;107795;1269;108214;-84
2022/10/04 11:01:09;;;;;;;5.00;2.20;;;;;;;15.83;63.93;100129.67;107782;1271;108011;-81
2022/10/04 11:03:59;;;;;;;4.50;1.60;;;;;;;16.17;63.53;100131.22;107857;1269;94688;-80
2022/10/04 11:06:53;;;;;;;2.00;1.30;;;;;;;16.45;62.48;100127.52;107799;1271;95530;-80
2022/10/04 11:09:54;;;;;;;4.30;1.70;;;;;;;16.83;62.14;100135.84;107709;1270;139397;-80
2022/10/04 11:12:47;;;;;;;4.10;1.50;;;;;;;17.26;61.21;100137.43;107869;1269;108897;-79
2022/10/04 11:16:06;;;;;;;2.60;1.60;;;;;;;17.41;59.92;100145.09;107660;1271;139247;-79
2022/10/04 11:19:14;;;;;;;3.70;1.80;;;;;;;17.28;59.38;100149.60;107778;1271;94854;-79
2022/10/04 11:22:09;;;;;;;3.30;1.50;;;;;;;17.03;59.02;100152.20;107792;1269;94662;-80
2022/10/04 11:25:16;;;;;;;3.80;1.60;;;;;;;16.71;58.86;100152.00;107780;1270;111228;-81
2022/10/04 11:27:53;;;;;;;4.50;1.30;;;;;;;16.34;59.03;100157.80;107793;1271;108573;-81
2022/10/04 11:30:29;;;;;;;3.00;1.50;;;;;;;16.16;59.24;100161.27;107810;1270;107810;-80
2022/10/04 11:33:41;;;;;;;2.40;1.20;;;;;;;16.08;59.35;100164.54;107676;1270;139300;-81
2022/10/04 11:36:32;;;;;;;2.10;1.30;;;;;;;15.93;59.26;100163.27;107876;1270;94952;-83
2022/10/04 11:39:54;;;;;;;3.50;1.70;;;;;;;15.74;59.67;100170.65;107744;1269;139231;-81
2022/10/04 11:42:38;;;;;;;2.90;1.60;;;;;;;15.52;60.15;100179.19;107518;1274;107878;-83
2022/10/04 11:45:32;;;;;;;3.60;1.60;;;;;;;15.48;60.29;100176.23;107385;1274;139994;-82
2022/10/04 11:48:14;;;;;;;2.50;1.50;;;;;;;15.38;60.40;100180.45;107501;1274;94700;-81
2022/10/04 11:51:03;;;;;;;3.40;1.40;;;;;;;15.29;60.58;100183.55;107402;1274;139512;-80
2022/10/04 11:54:02;;;;;;;2.70;1.60;;;;;;;15.27;60.91;100180.34;107509;1274;111835;-80
2022/10/04 11:56:44;;;;;;;5.30;1.40;;;;;;;15.22;60.92;100181.27;107259;1275;137514;-80
2022/10/04 11:59:34;;;;;;;6.20;1.60;;;;;;;15.15;60.92;100178.70;107525;1273;109177;-81
2022/10/04 12:02:41;;;;;;;2.50;1.40;;;;;;;15.18;60.76;100184.13;107400;1274;138922;-80
2022/10/04 12:05:49;;;;;;;4.30;1.60;;;;;;;15.20;60.56;100182.30;107530;1274;94659;-80
2022/10/04 12:08:29;;;;;;;1.70;1.30;;;;;;;15.35;60.81;100186.77;107321;1274;137654;-80
2022/10/04 12:11:24;;;;;;;2.40;1.60;;;;;;;15.54;60.70;100188.52;107549;1274;106501;-82
2022/10/04 12:14:03;;;;;;;4.00;1.40;;;;;;;15.62;59.93;100190.39;107415;1274;137896;-80
2022/10/04 12:16:55;;;;;;;2.30;1.50;;;;;;;15.58;59.81;100194.29;107673;1269;95020;-83
2022/10/04 12:19:59;;;;;;;5.40;1.50;;;;;;;15.50;59.70;100197.88;107687;1270;137753;-81
2022/10/04 12:22:55;;;;;;;3.10;1.40;;;;;;;15.41;60.08;100204.09;107261;1276;107732;-79
2022/10/04 12:25:57;;;;;;;4.30;1.50;;;;;;;15.39;60.25;100204.40;107127;1276;139406;-80
2022/10/04 12:28:46;;;;;;;6.10;1.60;;;;;;;15.40;60.70;100207.33;107247;1276;108568;-78
2022/10/04 12:31:31;;;;;;;2.60;1.60;;;;;;;15.43;60.52;100203.11;107152;1277;138371;-79
2022/10/04 12:34:13;;;;;;;2.60;1.40;;;;;;;15.48;60.85;100208.67;107281;1276;95192;-80
2022/10/04 12:37:05;;;;;;;2.30;1.50;;;;;;;15.59;60.68;100206.70;107269;1277;111171;-79